Flight Track Log - Related Links

Times and Time Zones

All times are in EDT time to prevent confusion due to time zone crossing. See the IGO482 flight status page for this flight to view local times or setup timezone preferences in your user account.

Time Position Orientation Groundspeed Altitude Reporting Facility
EDT Latitude Longitude Course Direction KTS MPH feet Rate Location/Type
Wed 12:55:19 AM 26.9340 75.4370 28° Northeast 476 548 33,000  Level FlightAware ADS-B
Wed 12:56:14 AM 27.0340 75.4980 29° Northeast 476 548 33,000  Level FlightAware ADS-B
Wed 12:56:54 AM 27.1000 75.5370 28° Northeast 476 548 33,000  Level FlightAware ADS-B
Wed 12:57:34 AM 27.1870 75.5900 28° Northeast 479 551 33,000  Level FlightAware ADS-B
Wed 12:58:19 AM 27.2640 75.6360 28° Northeast 479 551 33,000 -114 Level FlightAware ADS-B
Wed 12:59:19 AM 27.3890 75.7120 28° Northeast 479 551 32,800 -1,714 Descending FlightAware ADS-B
Wed 01:00:04 AM 27.4860 75.7710 28° Northeast 474 545 30,000 -3,120 Descending FlightAware ADS-B
Wed 01:00:34 AM 27.5420 75.8060 29° Northeast 476 548 28,900 -1,950 Descending FlightAware ADS-B
Wed 01:01:24 AM 27.6380 75.8690 30° Northeast 464 534 27,400 -1,745 Descending FlightAware ADS-B
Wed 01:02:24 AM 27.7300 75.9530 39° Northeast 454 522 25,700 -1,800 Descending FlightAware ADS-B
Wed 01:02:54 AM 27.7770 75.9990 41° Northeast 448 516 24,700 -1,875 Descending FlightAware ADS-B
Wed 01:03:44 AM 27.8590 76.0780 40° Northeast 435 501 23,200 -1,832 Descending FlightAware ADS-B
Wed 01:04:29 AM 27.9260 76.1430 41° Northeast 429 494 21,800 -1,800 Descending FlightAware ADS-B
Wed 01:05:04 AM 27.9800 76.1950 40° Northeast 416 479 20,800 -2,047 Descending FlightAware ADS-B
Wed 01:05:54 AM 28.0530 76.2660 41° Northeast 418 481 18,900 -2,114 Descending FlightAware ADS-B
Wed 01:06:49 AM 28.1330 76.3440 41° Northeast 410 472 17,100 -2,147 Descending FlightAware ADS-B
Wed 01:07:29 AM 28.1910 76.4000 40° Northeast 411 473 15,500 -2,240 Descending FlightAware ADS-B
Wed 01:08:04 AM 28.2370 76.4540 46° Northeast 414 476 14,300 -1,200 Descending FlightAware ADS-B
Wed 01:09:09 AM 28.2990 76.5710 59° Northeast 361 415 13,500 -720 Descending FlightAware ADS-B
Wed 01:09:44 AM 28.3260 76.6250 60° Northeast 347 399 13,100 -840 Descending FlightAware ADS-B
Wed 01:09:59 AM 28.3330 76.6510 73° East 345 397 12,800 -1,200 Descending FlightAware ADS-B
Wed 01:10:44 AM 28.3420 76.7310 83° East 328 377 11,900 -1,400 Descending FlightAware ADS-B
Wed 01:11:29 AM 28.3490 76.7970 83° East 330 380 10,700 -1,425 Descending FlightAware ADS-B
Wed 01:12:04 AM 28.3570 76.8680 83° East 313 360 10,000 -1,200 Descending FlightAware ADS-B
Wed 01:12:29 AM 28.3610 76.9060 83° East 309 356 9,500 -1,200 Descending FlightAware ADS-B
Wed 01:13:04 AM 28.3670 76.9600 83° East 301 346 8,800 -1,100 Descending FlightAware ADS-B
Wed 01:13:29 AM 28.3710 76.9940 82° East 295 339 8,400 -900 Descending FlightAware ADS-B
Wed 01:13:44 AM 28.3740 77.0230 83° East 287 330 8,200 -600 Descending FlightAware ADS-B
Wed 01:14:09 AM 28.3770 77.0540 84° East 273 314 8,000 -700 Descending FlightAware ADS-B
Wed 01:14:44 AM 28.3830 77.1050 82° East 258 297 7,500 -655 Descending FlightAware ADS-B
Wed 01:15:04 AM 28.3850 77.1290 85° East 248 285 7,400 -764 Descending FlightAware ADS-B
Wed 01:15:39 AM 28.3900 77.1700 82° East 244 281 6,800 -923 Descending FlightAware ADS-B
Wed 01:16:09 AM 28.3930 77.2060 85° East 238 274 6,400 -800 Descending FlightAware ADS-B
Wed 01:16:24 AM 28.3960 77.2300 82° East 233 268 6,200 -600 Descending FlightAware ADS-B
Wed 01:16:49 AM 28.3990 77.2620 84° East 233 268 6,000 -720 Descending FlightAware ADS-B
Wed 01:17:14 AM 28.4080 77.2860 67° East 230 265 5,600 -1,200 Descending FlightAware ADS-B
Wed 01:17:29 AM 28.4250 77.2950 25° Northeast 231 266 5,200 -600 Descending FlightAware ADS-B
Wed 01:18:04 AM 28.4590 77.3060 16° North 230 265 5,100 -771 Descending FlightAware ADS-B
Wed 01:18:39 AM 28.4930 77.3150 13° North 198 228 4,300 -1,477 Descending FlightAware ADS-B
Wed 01:19:09 AM 28.5150 77.3010 331° Northwest 199 229 3,500 -1,333 Descending FlightAware ADS-B
Wed 01:19:24 AM 28.5210 77.2830 291° West 197 227 3,300 -400 Descending FlightAware ADS-B
Wed 01:19:39 AM 28.5240 77.2740 291° West 185 213 3,300 -450 Level FlightAware ADS-B
Wed 01:20:04 AM 28.5290 77.2490 283° West 186 214 3,000 -750 Descending FlightAware ADS-B
Wed 01:20:19 AM 28.5320 77.2370 286° West 181 208 2,800 -800 Descending FlightAware ADS-B
Wed 01:20:49 AM 28.5390 77.2090 286° West 159 183 2,400 -873 Descending FlightAware ADS-B
Wed 01:21:14 AM 28.5430 77.1900 283° West 155 178 2,000 -857 Descending FlightAware ADS-B
Wed 01:21:24 AM 28.5450 77.1820 286° West 151 174 1,900 -667 Descending FlightAware ADS-B
Wed 01:21:59 AM 28.5510 77.1570 285° West 151 174 1,500 -900 Descending FlightAware ADS-B
Wed 01:22:04 AM 28.5530 77.1480 284° West 148 170 1,300 -750 Descending FlightAware ADS-B
Wed 01:22:39 AM 28.5580 77.1260 285° West 146 168 1,000 -514 Descending FlightAware ADS-B
Wed 01:32:00 AM 28.5665 77.1031 239° Southwest  Level Estimated
Wed 01:33:00 AM 28.5665 77.1031 270° West  Level Estimated
Wed 01:34:00 AM 28.5665 77.1031 270° West  Level Estimated
Wed 01:35:00 AM 28.5665 77.1031 270° West  Level Estimated

Login

Don't have an account? Register now (free) for customized features, flight alerts, and more!